Flight Track Log - Related Links

Times and Time Zones

All times are in EDT time to prevent confusion due to time zone crossing. See the N720EC flight status page for this flight to view local times or setup timezone preferences in your user account.

Time Position Orientation Groundspeed Altitude Reporting Facility
EDT Latitude Longitude Course Direction KTS MPH feet Rate Location/Type
Thu 11:27:43 PM 41.0833 -73.7333 339° North 107 123 1,700  Level New York TRACON
Thu 11:28:43 PM 41.1167 -73.7500 339° North 137 158 2,600 900 Climbing New York TRACON
Thu 11:29:43 PM 41.1500 -73.7167 37° Northeast 144 166 3,500 900 Climbing New York TRACON
Thu 11:30:43 PM 41.1833 -73.6833 37° Northeast 143 165 4,400 900 Climbing New York TRACON
Thu 11:31:43 PM 41.2000 -73.6500 56° Northeast 137 158 5,300 800 Climbing New York TRACON
Thu 11:32:43 PM 41.2333 -73.6333 21° North 135 155 6,000 737 Climbing New York TRACON
Thu 11:33:37 PM 41.2500 -73.5833 66° East 142 163 6,700 789 Climbing New York TRACON
Thu 11:34:37 PM 41.2667 -73.5500 56° Northeast 139 160 7,500 714 Climbing New York TRACON
Thu 11:35:43 PM 41.2833 -73.5000 66° East 143 165 8,200 600 Climbing New York TRACON
Thu 11:36:37 PM 41.3000 -73.4500 66° East 146 168 8,700 474 Climbing New York TRACON
Thu 11:37:37 PM 41.3167 -73.4000 66° East 149 171 9,100 190 Climbing New York TRACON
Thu 11:38:43 PM 41.3500 -73.3333 56° Northeast 166 191 9,100  Level New York TRACON
Thu 11:39:09 PM 41.3550 -73.3194 64° Northeast 172 198 9,100 -97 Level Boston Center
Thu 11:39:45 PM 41.3678 -73.2836 65° Northeast 175 201 9,000  Descending Boston Center
Thu 11:40:39 PM 41.3869 -73.2314 64° Northeast 175 201 9,100  Climbing Boston Center
Thu 11:41:40 PM 41.4081 -73.1736 64° Northeast 172 198 9,000  Descending Boston Center
Thu 11:42:41 PM 41.4292 -73.1183 63° Northeast 170 196 9,100 45 Climbing Boston Center
Thu 11:43:53 PM 41.4631 -73.0606 52° Northeast 168 193 9,100  Level Boston Center
Thu 11:44:54 PM 41.5006 -73.0306 31° Northeast 162 186 9,100  Level Boston Center
Thu 11:45:55 PM 41.5383 -72.9947 35° Northeast 162 186 9,100  Level Boston Center
Thu 11:46:55 PM 41.5739 -72.9617 35° Northeast 161 185 9,100  Level Boston Center
Thu 11:47:56 PM 41.6117 -72.9261 35° Northeast 163 188 9,100 -50 Level Boston Center
Thu 11:48:56 PM 41.6492 -72.8903 36° Northeast 163 188 9,000  Descending Boston Center
Thu 11:49:57 PM 41.6889 -72.8542 34° Northeast 166 191 9,100 49 Climbing Boston Center
Thu 11:50:58 PM 41.7267 -72.8183 35° Northeast 167 192 9,100  Level Boston Center
Thu 11:51:58 PM 41.7664 -72.7825 34° Northeast 167 192 9,100  Level Boston Center
Thu 11:52:59 PM 41.7997 -72.7492 37° Northeast 163 188 9,100  Level Boston Center
Thu 11:53:59 PM 41.8375 -72.7131 35° Northeast 160 184 9,100  Level Boston Center
Thu 11:55:00 PM 41.8728 -72.6825 33° Northeast 159 183 9,100  Level Boston Center
Thu 11:56:01 PM 41.9106 -72.6464 35° Northeast 158 182 9,100  Level Boston Center
Thu 11:57:01 PM 41.9458 -72.6131 35° Northeast 159 183 9,100  Level Boston Center
Thu 11:57:56 PM 41.9794 -72.5797 36° Northeast 160 184 9,100  Level Boston Center
Thu 11:58:50 PM 42.0128 -72.5464 37° Northeast 160 184 9,100  Level Boston Center
Thu 11:59:51 PM 42.0481 -72.5100 37° Northeast 162 186 9,100  Level Boston Center
Fri 12:00:51 AM 42.0878 -72.4764 32° Northeast 169 194 9,100  Level Boston Center
Fri 12:01:51 AM 42.1192 -72.4456 36° Northeast 164 189 9,100  Level Boston Center
Fri 12:02:51 AM 42.1586 -72.4092 34° Northeast 164 189 9,100  Level Boston Center
Fri 12:03:51 AM 42.1919 -72.3756 37° Northeast 158 182 9,100  Level Boston Center
Fri 12:04:51 AM 42.2317 -72.3392 34° Northeast 158 182 9,100  Level Boston Center
Fri 12:05:51 AM 42.2628 -72.3056 39° Northeast 158 182 9,100  Level Boston Center
Fri 12:06:51 AM 42.3022 -72.2717 32° Northeast 153 176 9,100  Level Boston Center
Fri 12:07:51 AM 42.3336 -72.2406 36° Northeast 147 169 9,100  Level Boston Center
Fri 12:08:51 AM 42.3689 -72.2042 37° Northeast 152 175 9,100  Level Boston Center
Fri 12:09:51 AM 42.4064 -72.1672 36° Northeast 152 175 9,100  Level Boston Center
Fri 12:10:51 AM 42.4397 -72.1364 34° Northeast 152 175 9,100  Level Boston Center
Fri 12:11:51 AM 42.4769 -72.0994 36° Northeast 152 175 9,100  Level Boston Center
Fri 12:13:03 AM 42.5081 -72.0711 34° Northeast 147 169 9,100  Level Boston Center
Fri 12:14:03 AM 42.5497 -72.0286 37° Northeast 147 169 9,100  Level Boston Center
Fri 12:15:03 AM 42.5892 -71.9944 33° Northeast 147 169 9,100  Level Boston Center
Fri 12:16:03 AM 42.6203 -71.9633 36° Northeast 147 169 9,100  Level Boston Center
Fri 12:17:03 AM 42.6597 -71.9264 35° Northeast 147 169 9,100  Level Boston Center
Fri 12:18:03 AM 42.6889 -71.8950 38° Northeast 147 169 9,100  Level Boston Center
Fri 12:19:03 AM 42.7283 -71.8578 35° Northeast 152 175 9,100  Level Boston Center
Fri 12:20:03 AM 42.7531 -71.8181 50° Northeast 147 169 9,100  Level Boston Center
Fri 12:21:03 AM 42.7839 -71.7697 49° Northeast 147 169 9,100  Level Boston Center
Fri 12:22:03 AM 42.8086 -71.7269 52° Northeast 152 175 9,100  Level Boston Center
Fri 12:23:03 AM 42.8397 -71.6756 50° Northeast 160 184 9,100  Level Boston Center
Fri 12:24:03 AM 42.8644 -71.6356 50° Northeast 160 184 9,100  Level Boston Center
Fri 12:25:03 AM 42.8953 -71.5814 52° Northeast 160 184 9,100  Level Boston Center
Fri 12:26:03 AM 42.9219 -71.5414 48° Northeast 160 184 9,100  Level Boston Center
Fri 12:27:56 AM 42.9833 -71.4500 47° Northeast 157 181 9,100  Level KA90
Fri 12:28:56 AM 43.0000 -71.4000 65° Northeast 158 182 9,100  Level KA90
Fri 12:29:56 AM 43.0333 -71.3500 48° Northeast 159 183 9,100  Level KA90
Fri 12:30:56 AM 43.0667 -71.3000 48° Northeast 158 182 9,100  Level KA90
Fri 12:31:56 AM 43.0833 -71.2667 56° Northeast 159 183 9,100  Level KA90
Fri 12:32:56 AM 43.1167 -71.2167 48° Northeast 158 182 9,100 -332 Level KA90
Fri 12:35:15 AM 43.1825 -71.1047 51° Northeast 183 211 8,000 -513 Descending Boston Center
Fri 12:36:15 AM 43.2236 -71.0611 38° Northeast 177 204 7,400 -450 Descending Boston Center
Fri 12:37:15 AM 43.2672 -71.0431 17° North 167 192 7,100 -150 Descending Boston Center
Fri 12:38:15 AM 43.3147 -71.0133 24° Northeast 172 198 7,100  Level Boston Center
Fri 12:39:15 AM 43.3519 -70.9897 25° Northeast 172 198 7,100  Level Boston Center
Fri 12:40:15 AM 43.3994 -70.9600 24° Northeast 172 198 7,100 -200 Level Boston Center
Fri 12:41:15 AM 43.4428 -70.9303 26° Northeast 172 198 6,700 -450 Descending Boston Center
Fri 12:42:15 AM 43.4883 -70.9033 23° Northeast 172 198 6,200 -600 Descending Boston Center
Fri 12:43:15 AM 43.5317 -70.8736 26° Northeast 172 198 5,500 -650 Descending Boston Center
Fri 12:44:15 AM 43.5750 -70.8439 26° Northeast 172 198 4,900 -500 Descending Boston Center
Fri 12:45:15 AM 43.6164 -70.8111 30° Northeast 172 198 4,500 -200 Descending Boston Center
Fri 12:46:15 AM 43.6533 -70.7786 32° Northeast 162 186 4,500  Level Boston Center
Fri 12:47:15 AM 43.6694 -70.7381 61° Northeast 139 160 4,500  Level Boston Center
Fri 12:48:15 AM 43.6686 -70.6778 91° East 133 153 4,500 -50 Level Boston Center
Fri 12:49:15 AM 43.6678 -70.6261 91° East 141 162 4,400 -400 Descending Boston Center
Fri 12:50:15 AM 43.6625 -70.5658 97° East 141 162 3,700 -650 Descending Boston Center
Fri 12:51:15 AM 43.6597 -70.5258 95° East 127 146 3,100 -650 Descending Boston Center
Fri 12:52:15 AM 43.6569 -70.4800 95° East 109 125 2,400 -600 Descending Boston Center
Fri 12:53:15 AM 43.6542 -70.4458 96° East 109 125 1,900 -550 Descending Boston Center
Fri 12:54:15 AM 43.6514 -70.4028 95° East 103 119 1,300 -550 Descending Boston Center
Fri 12:55:15 AM 43.6508 -70.3742 92° East 103 119 800 1,400 Descending Boston Center
Fri 12:56:15 AM 43.6481 -70.3283 95° East 103 119 4,100 1,650 Climbing Boston Center
Fri 12:57:15 AM 43.6472 -70.2908 92° East 103 119 4,100  Level Boston Center

Login

Don't have an account? Register now (free) for customized features, flight alerts, and more!